sensor_id;sensor_type;location;lat;lon;timestamp;pressure;altitude;pressure_sealevel;temperature;humidity
48622;BME280;34421;48.944;9.460;2023-06-22T00:01:54;98495.41;;;22.06;71.31
48622;BME280;34421;48.944;9.460;2023-06-22T00:04:20;98491.66;;;22.02;72.11
48622;BME280;34421;48.944;9.460;2023-06-22T00:06:45;98494.38;;;22.02;71.95
48622;BME280;34421;48.944;9.460;2023-06-22T00:09:10;98483.28;;;21.98;72.12
48622;BME280;34421;48.944;9.460;2023-06-22T00:11:36;98477.38;;;21.91;72.14
48622;BME280;34421;48.944;9.460;2023-06-22T00:14:03;98476.91;;;21.84;73.02
48622;BME280;34421;48.944;9.460;2023-06-22T00:16:28;98466.09;;;21.79;73.32
48622;BME280;34421;48.944;9.460;2023-06-22T00:18:54;98460.97;;;21.77;73.52
48622;BME280;34421;48.944;9.460;2023-06-22T00:21:19;98467.75;;;21.75;73.21
48622;BME280;34421;48.944;9.460;2023-06-22T00:23:47;98474.81;;;21.71;73.51
48622;BME280;34421;48.944;9.460;2023-06-22T00:26:15;98480.81;;;21.68;73.50
48622;BME280;34421;48.944;9.460;2023-06-22T00:28:40;98479.75;;;21.64;73.65
48622;BME280;34421;48.944;9.460;2023-06-22T00:31:06;98484.66;;;21.56;73.34
48622;BME280;34421;48.944;9.460;2023-06-22T00:33:31;98480.91;;;21.52;73.68
48622;BME280;34421;48.944;9.460;2023-06-22T00:35:57;98471.78;;;21.43;73.65
48622;BME280;34421;48.944;9.460;2023-06-22T00:38:22;98463.97;;;21.36;74.49
48622;BME280;34421;48.944;9.460;2023-06-22T00:40:47;98468.81;;;21.34;74.45
48622;BME280;34421;48.944;9.460;2023-06-22T00:43:12;98476.69;;;21.31;74.85
48622;BME280;34421;48.944;9.460;2023-06-22T00:45:38;98464.53;;;21.28;74.46
48622;BME280;34421;48.944;9.460;2023-06-22T00:48:03;98468.59;;;21.26;75.64
48622;BME280;34421;48.944;9.460;2023-06-22T00:50:32;98473.75;;;21.27;75.40
48622;BME280;34421;48.944;9.460;2023-06-22T00:53:05;98465.91;;;21.21;75.02
48622;BME280;34421;48.944;9.460;2023-06-22T00:55:43;98462.19;;;21.11;74.61
48622;BME280;34421;48.944;9.460;2023-06-22T00:58:11;98473.53;;;21.13;74.82
48622;BME280;34421;48.944;9.460;2023-06-22T01:00:37;98477.06;;;21.09;75.41
48622;BME280;34421;48.944;9.460;2023-06-22T01:03:04;98479.53;;;21.05;74.73
48622;BME280;34421;48.944;9.460;2023-06-22T01:05:33;98493.31;;;21.09;75.59
48622;BME280;34421;48.944;9.460;2023-06-22T01:13:41;98531.22;;;21.09;76.12
48622;BME280;34421;48.944;9.460;2023-06-22T01:16:37;98538.03;;;21.01;76.84
48622;BME280;34421;48.944;9.460;2023-06-22T01:19:26;98557.75;;;21.12;76.28
48622;BME280;34421;48.944;9.460;2023-06-22T01:21:55;98580.72;;;21.25;76.17
48622;BME280;34421;48.944;9.460;2023-06-22T01:24:33;98570.13;;;21.33;76.17
48622;BME280;34421;48.944;9.460;2023-06-22T01:30:11;98568.84;;;21.10;76.79
48622;BME280;34421;48.944;9.460;2023-06-22T01:32:38;98554.78;;;21.08;76.74
48622;BME280;34421;48.944;9.460;2023-06-22T01:35:07;98539.13;;;21.00;77.53
48622;BME280;34421;48.944;9.460;2023-06-22T01:37:34;98533.19;;;20.93;78.17
48622;BME280;34421;48.944;9.460;2023-06-22T01:40:02;98551.06;;;20.89;77.75
48622;BME280;34421;48.944;9.460;2023-06-22T01:42:30;98556.16;;;21.01;78.53
48622;BME280;34421;48.944;9.460;2023-06-22T01:44:56;98545.84;;;21.08;77.70
48622;BME280;34421;48.944;9.460;2023-06-22T01:47:22;98533.97;;;20.93;78.34
48622;BME280;34421;48.944;9.460;2023-06-22T01:49:49;98532.41;;;20.82;78.58
48622;BME280;34421;48.944;9.460;2023-06-22T01:52:17;98530.28;;;20.74;78.73
48622;BME280;34421;48.944;9.460;2023-06-22T01:54:42;98534.88;;;20.74;79.33
48622;BME280;34421;48.944;9.460;2023-06-22T01:57:08;98527.03;;;20.67;79.56
48622;BME280;34421;48.944;9.460;2023-06-22T01:59:39;98525.97;;;20.58;79.25
48622;BME280;34421;48.944;9.460;2023-06-22T02:02:09;98532.19;;;20.48;79.96
48622;BME280;34421;48.944;9.460;2023-06-22T02:04:39;98530.03;;;20.40;80.36
48622;BME280;34421;48.944;9.460;2023-06-22T02:07:13;98519.78;;;20.32;81.16
48622;BME280;34421;48.944;9.460;2023-06-22T02:09:43;98520.59;;;20.27;82.02
48622;BME280;34421;48.944;9.460;2023-06-22T02:12:11;98528.97;;;20.25;81.72
48622;BME280;34421;48.944;9.460;2023-06-22T02:14:38;98531.41;;;20.27;81.32
48622;BME280;34421;48.944;9.460;2023-06-22T02:17:04;98540.03;;;20.34;81.20
48622;BME280;34421;48.944;9.460;2023-06-22T02:19:36;98544.09;;;20.42;81.87
48622;BME280;34421;48.944;9.460;2023-06-22T02:22:02;98538.16;;;20.45;81.45
48622;BME280;34421;48.944;9.460;2023-06-22T02:24:27;98530.59;;;20.42;81.07
48622;BME280;34421;48.944;9.460;2023-06-22T02:26:57;98536.78;;;20.37;81.03
48622;BME280;34421;48.944;9.460;2023-06-22T02:29:22;98531.94;;;20.39;80.81
48622;BME280;34421;48.944;9.460;2023-06-22T02:31:48;98532.75;;;20.40;81.38
48622;BME280;34421;48.944;9.460;2023-06-22T02:34:13;98525.16;;;20.37;81.61
48622;BME280;34421;48.944;9.460;2023-06-22T02:36:49;98528.72;;;20.32;81.80
48622;BME280;34421;48.944;9.460;2023-06-22T02:39:21;98529.22;;;20.34;81.65
48622;BME280;34421;48.944;9.460;2023-06-22T02:41:48;98518.16;;;20.36;81.27
48622;BME280;34421;48.944;9.460;2023-06-22T02:44:14;98510.31;;;20.34;81.64
48622;BME280;34421;48.944;9.460;2023-06-22T02:46:39;98505.44;;;20.31;81.30
48622;BME280;34421;48.944;9.460;2023-06-22T02:49:05;98504.63;;;20.31;81.53
48622;BME280;34421;48.944;9.460;2023-06-22T02:51:33;98511.94;;;20.35;81.91
48622;BME280;34421;48.944;9.460;2023-06-22T02:53:59;98513.28;;;20.38;82.08
48622;BME280;34421;48.944;9.460;2023-06-22T02:56:25;98519.50;;;20.33;81.95
48622;BME280;34421;48.944;9.460;2023-06-22T02:58:51;98514.38;;;20.26;82.28
48622;BME280;34421;48.944;9.460;2023-06-22T03:01:16;98498.72;;;20.23;81.93
48622;BME280;34421;48.944;9.460;2023-06-22T03:03:41;98494.91;;;20.24;82.89
48622;BME280;34421;48.944;9.460;2023-06-22T03:06:07;98491.13;;;20.25;82.67
48622;BME280;34421;48.944;9.460;2023-06-22T03:08:32;98497.63;;;20.30;81.99
48622;BME280;34421;48.944;9.460;2023-06-22T03:10:57;98511.13;;;20.30;82.08
48622;BME280;34421;48.944;9.460;2023-06-22T03:13:23;98503.03;;;20.30;82.57
48622;BME280;34421;48.944;9.460;2023-06-22T03:15:48;98508.16;;;20.31;82.04
48622;BME280;34421;48.944;9.460;2023-06-22T03:18:13;98495.47;;;20.32;81.95
48622;BME280;34421;48.944;9.460;2023-06-22T03:20:40;98488.16;;;20.32;81.74
48622;BME280;34421;48.944;9.460;2023-06-22T03:23:06;98480.59;;;20.29;81.92
48622;BME280;34421;48.944;9.460;2023-06-22T03:25:31;98483.56;;;20.27;82.09
48622;BME280;34421;48.944;9.460;2023-06-22T03:27:56;98479.25;;;20.32;82.15
48622;BME280;34421;48.944;9.460;2023-06-22T03:30:22;98474.91;;;20.36;81.76
48622;BME280;34421;48.944;9.460;2023-06-22T03:32:47;98484.06;;;20.40;81.30
48622;BME280;34421;48.944;9.460;2023-06-22T03:35:12;98484.59;;;20.42;80.78
48622;BME280;34421;48.944;9.460;2023-06-22T03:37:39;98485.66;;;20.46;81.12
48622;BME280;34421;48.944;9.460;2023-06-22T03:40:05;98480.53;;;20.49;81.33
48622;BME280;34421;48.944;9.460;2023-06-22T03:42:30;98486.25;;;20.53;80.79
48622;BME280;34421;48.944;9.460;2023-06-22T03:44:56;98485.69;;;20.56;81.29
48622;BME280;34421;48.944;9.460;2023-06-22T03:47:22;98486.75;;;20.55;80.97
48622;BME280;34421;48.944;9.460;2023-06-22T03:49:47;98493.50;;;20.58;80.70
48622;BME280;34421;48.944;9.460;2023-06-22T03:52:12;98492.16;;;20.60;80.96
48622;BME280;34421;48.944;9.460;2023-06-22T03:54:38;98487.84;;;20.64;80.82
48622;BME280;34421;48.944;9.460;2023-06-22T03:57:03;98481.31;;;20.70;80.43
48622;BME280;34421;48.944;9.460;2023-06-22T03:59:29;98494.25;;;20.79;80.52
48622;BME280;34421;48.944;9.460;2023-06-22T04:01:54;98489.63;;;20.89;80.09
48622;BME280;34421;48.944;9.460;2023-06-22T04:04:20;98490.97;;;20.97;80.09
48622;BME280;34421;48.944;9.460;2023-06-22T04:06:46;98487.66;;;21.05;79.68
48622;BME280;34421;48.944;9.460;2023-06-22T04:09:11;98489.00;;;21.08;78.97
48622;BME280;34421;48.944;9.460;2023-06-22T04:11:37;98478.41;;;21.11;78.41
48622;BME280;34421;48.944;9.460;2023-06-22T04:14:02;98474.09;;;21.15;78.79
48622;BME280;34421;48.944;9.460;2023-06-22T04:16:28;98487.56;;;21.26;77.98
48622;BME280;34421;48.944;9.460;2023-06-22T04:18:53;98467.47;;;21.32;78.14
48622;BME280;34421;48.944;9.460;2023-06-22T04:21:19;98469.38;;;21.36;77.75
48622;BME280;34421;48.944;9.460;2023-06-22T04:23:45;98473.13;;;21.41;77.29
48622;BME280;34421;48.944;9.460;2023-06-22T04:26:11;98459.53;;;21.51;77.34
48622;BME280;34421;48.944;9.460;2023-06-22T04:28:36;98450.56;;;21.55;76.60
48622;BME280;34421;48.944;9.460;2023-06-22T04:31:03;98453.13;;;21.71;76.26
48622;BME280;34421;48.944;9.460;2023-06-22T04:33:28;98442.50;;;21.79;76.11
48622;BME280;34421;48.944;9.460;2023-06-22T04:35:57;98441.38;;;21.85;75.71
48622;BME280;34421;48.944;9.460;2023-06-22T04:38:24;98439.59;;;22.00;74.80
48622;BME280;34421;48.944;9.460;2023-06-22T04:40:50;98442.25;;;22.10;73.73
48622;BME280;34421;48.944;9.460;2023-06-22T04:43:15;98441.97;;;22.06;73.62
48622;BME280;34421;48.944;9.460;2023-06-22T04:45:41;98438.09;;;22.18;73.54
48622;BME280;34421;48.944;9.460;2023-06-22T04:48:06;98439.63;;;22.29;72.79
48622;BME280;34421;48.944;9.460;2023-06-22T04:50:33;98444.47;;;22.32;72.46
48622;BME280;34421;48.944;9.460;2023-06-22T04:52:58;98438.69;;;22.39;71.99
48622;BME280;34421;48.944;9.460;2023-06-22T04:55:24;98435.72;;;22.40;71.93
48622;BME280;34421;48.944;9.460;2023-06-22T04:57:51;98438.69;;;22.39;71.40
48622;BME280;34421;48.944;9.460;2023-06-22T05:00:19;98427.63;;;22.35;72.41
48622;BME280;34421;48.944;9.460;2023-06-22T05:02:45;98435.13;;;22.43;72.18
48622;BME280;34421;48.944;9.460;2023-06-22T05:05:12;98433.09;;;22.54;71.18
48622;BME280;34421;48.944;9.460;2023-06-22T05:07:44;98420.16;;;22.70;70.85
48622;BME280;34421;48.944;9.460;2023-06-22T05:10:11;98419.75;;;22.82;70.34
48622;BME280;34421;48.944;9.460;2023-06-22T05:12:37;98424.47;;;22.95;70.00
48622;BME280;34421;48.944;9.460;2023-06-22T05:15:03;98405.91;;;23.02;69.81
48622;BME280;34421;48.944;9.460;2023-06-22T05:17:29;98416.69;;;23.07;68.76
48622;BME280;34421;48.944;9.460;2023-06-22T05:19:54;98419.56;;;23.16;68.86
48622;BME280;34421;48.944;9.460;2023-06-22T05:22:20;98416.19;;;23.24;68.77
48622;BME280;34421;48.944;9.460;2023-06-22T05:24:45;98423.09;;;23.35;68.33
48622;BME280;34421;48.944;9.460;2023-06-22T05:27:10;98424.78;;;23.50;67.70
48622;BME280;34421;48.944;9.460;2023-06-22T05:29:37;98421.47;;;23.67;66.93
48622;BME280;34421;48.944;9.460;2023-06-22T05:32:02;98411.56;;;23.76;66.58
48622;BME280;34421;48.944;9.460;2023-06-22T05:34:28;98408.81;;;23.95;66.20
48622;BME280;34421;48.944;9.460;2023-06-22T05:36:53;98412.25;;;24.15;65.28
48622;BME280;34421;48.944;9.460;2023-06-22T05:39:18;98414.47;;;24.26;64.64
48622;BME280;34421;48.944;9.460;2023-06-22T05:41:45;98410.88;;;24.45;63.99
48622;BME280;34421;48.944;9.460;2023-06-22T05:44:11;98410.59;;;24.60;63.78
48622;BME280;34421;48.944;9.460;2023-06-22T05:46:36;98403.63;;;24.68;62.93
48622;BME280;34421;48.944;9.460;2023-06-22T05:49:02;98399.41;;;24.62;62.59
48622;BME280;34421;48.944;9.460;2023-06-22T05:51:27;98390.72;;;24.73;62.55
48622;BME280;34421;48.944;9.460;2023-06-22T05:53:52;98401.59;;;24.87;62.20
48622;BME280;34421;48.944;9.460;2023-06-22T05:56:18;98395.38;;;24.95;61.59
48622;BME280;34421;48.944;9.460;2023-06-22T05:58:44;98400.81;;;25.09;60.99
48622;BME280;34421;48.944;9.460;2023-06-22T06:01:09;98398.50;;;25.16;60.63
48622;BME280;34421;48.944;9.460;2023-06-22T06:03:34;98399.88;;;25.28;60.03
48622;BME280;34421;48.944;9.460;2023-06-22T06:06:06;98395.97;;;25.42;60.16
48622;BME280;34421;48.944;9.460;2023-06-22T06:08:31;98396.78;;;25.65;58.86
48622;BME280;34421;48.944;9.460;2023-06-22T06:10:56;98394.91;;;25.97;57.96
48622;BME280;34421;48.944;9.460;2023-06-22T06:13:22;98390.75;;;27.05;55.82
48622;BME280;34421;48.944;9.460;2023-06-22T06:15:48;98394.25;;;28.91;50.29
48622;BME280;34421;48.944;9.460;2023-06-22T06:18:13;98394.03;;;30.62;46.87
48622;BME280;34421;48.944;9.460;2023-06-22T06:20:38;98391.78;;;32.01;42.67
48622;BME280;34421;48.944;9.460;2023-06-22T06:23:04;98392.66;;;32.88;41.28
48622;BME280;34421;48.944;9.460;2023-06-22T06:25:29;98383.41;;;32.29;41.53
48622;BME280;34421;48.944;9.460;2023-06-22T06:27:54;98381.19;;;31.59;42.36
48622;BME280;34421;48.944;9.460;2023-06-22T06:30:20;98383.06;;;31.71;42.90
48622;BME280;34421;48.944;9.460;2023-06-22T06:32:46;98373.41;;;31.77;41.95
48622;BME280;34421;48.944;9.460;2023-06-22T06:35:13;98373.66;;;31.16;42.96
48622;BME280;34421;48.944;9.460;2023-06-22T06:37:40;98371.91;;;30.83;44.06
48622;BME280;34421;48.944;9.460;2023-06-22T06:40:11;98369.59;;;31.38;42.54
48622;BME280;34421;48.944;9.460;2023-06-22T06:42:38;98371.25;;;32.14;41.63
48622;BME280;34421;48.944;9.460;2023-06-22T06:45:06;98365.66;;;33.52;39.43
48622;BME280;34421;48.944;9.460;2023-06-22T06:47:31;98366.00;;;34.65;36.86
48622;BME280;34421;48.944;9.460;2023-06-22T06:49:57;98360.53;;;35.59;35.49
48622;BME280;34421;48.944;9.460;2023-06-22T06:52:22;98366.63;;;36.72;33.18
48622;BME280;34421;48.944;9.460;2023-06-22T06:54:47;98367.91;;;37.98;31.47
48622;BME280;34421;48.944;9.460;2023-06-22T06:57:14;98375.31;;;39.19;29.38
48622;BME280;34421;48.944;9.460;2023-06-22T06:59:40;98378.81;;;40.04;28.18
48622;BME280;34421;48.944;9.460;2023-06-22T07:02:06;98371.75;;;40.86;27.27
48622;BME280;34421;48.944;9.460;2023-06-22T07:04:31;98385.69;;;41.20;26.32
48622;BME280;34421;48.944;9.460;2023-06-22T07:06:58;98375.41;;;41.48;25.98
48622;BME280;34421;48.944;9.460;2023-06-22T07:09:24;98381.66;;;41.86;25.42
48622;BME280;34421;48.944;9.460;2023-06-22T07:11:49;98370.50;;;42.09;24.21
48622;BME280;34421;48.944;9.460;2023-06-22T07:14:14;98379.16;;;42.19;23.94
48622;BME280;34421;48.944;9.460;2023-06-22T07:16:39;98370.72;;;42.46;24.73
48622;BME280;34421;48.944;9.460;2023-06-22T07:19:05;98364.41;;;42.62;23.59
48622;BME280;34421;48.944;9.460;2023-06-22T07:21:30;98364.97;;;42.53;23.35
48622;BME280;34421;48.944;9.460;2023-06-22T07:23:58;98362.78;;;42.17;23.96
48622;BME280;34421;48.944;9.460;2023-06-22T07:26:24;98363.88;;;42.47;23.68
48622;BME280;34421;48.944;9.460;2023-06-22T07:28:49;98353.41;;;42.51;23.75
48622;BME280;34421;48.944;9.460;2023-06-22T07:31:16;98352.78;;;42.87;23.85
48622;BME280;34421;48.944;9.460;2023-06-22T07:33:41;98342.44;;;43.40;22.65
48622;BME280;34421;48.944;9.460;2023-06-22T07:36:06;98330.22;;;43.50;22.57
48622;BME280;34421;48.944;9.460;2023-06-22T07:38:33;98327.28;;;43.90;22.17
48622;BME280;34421;48.944;9.460;2023-06-22T07:40:59;98318.78;;;44.72;21.61
48622;BME280;34421;48.944;9.460;2023-06-22T07:43:24;98320.59;;;45.20;20.82
48622;BME280;34421;48.944;9.460;2023-06-22T07:45:50;98309.75;;;45.61;20.51
48622;BME280;34421;48.944;9.460;2023-06-22T07:48:22;98307.66;;;46.47;20.30
48622;BME280;34421;48.944;9.460;2023-06-22T07:50:48;98297.50;;;46.94;19.43
48622;BME280;34421;48.944;9.460;2023-06-22T07:53:13;98293.72;;;47.41;18.47
48622;BME280;34421;48.944;9.460;2023-06-22T07:55:39;98290.63;;;46.95;17.99
48622;BME280;34421;48.944;9.460;2023-06-22T07:58:04;98310.84;;;45.25;18.96
48622;BME280;34421;48.944;9.460;2023-06-22T08:00:29;98284.13;;;44.91;19.72
48622;BME280;34421;48.944;9.460;2023-06-22T08:02:55;98300.66;;;44.60;19.84
48622;BME280;34421;48.944;9.460;2023-06-22T08:05:20;98290.13;;;44.19;20.05
48622;BME280;34421;48.944;9.460;2023-06-22T08:07:46;98280.38;;;44.40;19.96
48622;BME280;34421;48.944;9.460;2023-06-22T08:10:12;98286.97;;;44.33;19.77
48622;BME280;34421;48.944;9.460;2023-06-22T08:12:38;98287.13;;;44.42;19.73
48622;BME280;34421;48.944;9.460;2023-06-22T08:15:04;98273.00;;;44.29;19.79
48622;BME280;34421;48.944;9.460;2023-06-22T08:17:30;98265.84;;;45.12;18.74
48622;BME280;34421;48.944;9.460;2023-06-22T08:19:56;98261.81;;;45.64;19.11
48622;BME280;34421;48.944;9.460;2023-06-22T08:22:21;98255.81;;;46.35;18.14
48622;BME280;34421;48.944;9.460;2023-06-22T08:24:47;98272.69;;;46.23;18.13
48622;BME280;34421;48.944;9.460;2023-06-22T08:27:12;98275.28;;;46.52;18.38
48622;BME280;34421;48.944;9.460;2023-06-22T08:29:38;98284.47;;;46.43;18.47
48622;BME280;34421;48.944;9.460;2023-06-22T08:32:04;98298.16;;;46.76;18.10
48622;BME280;34421;48.944;9.460;2023-06-22T08:34:30;98297.84;;;47.27;18.31
48622;BME280;34421;48.944;9.460;2023-06-22T08:36:55;98307.41;;;48.29;16.73
48622;BME280;34421;48.944;9.460;2023-06-22T08:39:21;98297.81;;;48.72;15.91
48622;BME280;34421;48.944;9.460;2023-06-22T08:41:47;98307.38;;;48.84;15.55
48622;BME280;34421;48.944;9.460;2023-06-22T08:44:12;98305.66;;;49.38;15.36
48622;BME280;34421;48.944;9.460;2023-06-22T08:46:38;98317.44;;;49.46;15.54
48622;BME280;34421;48.944;9.460;2023-06-22T08:49:06;98312.28;;;47.69;16.66
48622;BME280;34421;48.944;9.460;2023-06-22T08:51:31;98323.25;;;46.13;17.75
48622;BME280;34421;48.944;9.460;2023-06-22T08:53:57;98314.78;;;46.61;17.85
48622;BME280;34421;48.944;9.460;2023-06-22T08:56:22;98315.25;;;48.25;16.43
48622;BME280;34421;48.944;9.460;2023-06-22T08:58:47;98319.94;;;48.28;16.64
48622;BME280;34421;48.944;9.460;2023-06-22T09:01:13;98323.50;;;47.91;16.66
48622;BME280;34421;48.944;9.460;2023-06-22T09:03:40;98318.81;;;47.26;16.39
48622;BME280;34421;48.944;9.460;2023-06-22T09:06:05;98321.84;;;45.19;18.44
48622;BME280;34421;48.944;9.460;2023-06-22T09:08:31;98315.94;;;43.97;20.23
48622;BME280;34421;48.944;9.460;2023-06-22T09:10:56;98312.41;;;44.55;19.87
48622;BME280;34421;48.944;9.460;2023-06-22T09:13:22;98302.44;;;45.51;18.84
48622;BME280;34421;48.944;9.460;2023-06-22T09:15:47;98287.22;;;45.99;17.86
48622;BME280;34421;48.944;9.460;2023-06-22T09:18:13;98282.81;;;47.61;17.12
48622;BME280;34421;48.944;9.460;2023-06-22T09:20:39;98285.13;;;47.13;17.12
48622;BME280;34421;48.944;9.460;2023-06-22T09:23:04;98286.09;;;46.31;17.62
48622;BME280;34421;48.944;9.460;2023-06-22T09:25:30;98284.75;;;45.88;18.64
48622;BME280;34421;48.944;9.460;2023-06-22T09:27:55;98293.75;;;44.48;19.45
48622;BME280;34421;48.944;9.460;2023-06-22T09:30:21;98293.31;;;44.79;19.82
48622;BME280;34421;48.944;9.460;2023-06-22T09:32:47;98289.47;;;45.79;19.37
48622;BME280;34421;48.944;9.460;2023-06-22T09:35:12;98309.06;;;43.82;20.59
48622;BME280;34421;48.944;9.460;2023-06-22T09:37:38;98320.03;;;42.17;22.74
48622;BME280;34421;48.944;9.460;2023-06-22T09:40:05;98324.78;;;41.42;23.55
48622;BME280;34421;48.944;9.460;2023-06-22T09:42:35;98312.28;;;41.77;22.74
48622;BME280;34421;48.944;9.460;2023-06-22T09:45:00;98290.50;;;43.55;21.28
48622;BME280;34421;48.944;9.460;2023-06-22T09:47:28;98285.78;;;43.85;21.09
48622;BME280;34421;48.944;9.460;2023-06-22T09:49:53;98277.88;;;42.91;21.96
48622;BME280;34421;48.944;9.460;2023-06-22T09:52:21;98282.31;;;42.48;22.52
48622;BME280;34421;48.944;9.460;2023-06-22T09:54:46;98283.88;;;42.06;23.27
48622;BME280;34421;48.944;9.460;2023-06-22T09:57:11;98279.94;;;42.47;23.23
48622;BME280;34421;48.944;9.460;2023-06-22T09:59:37;98267.97;;;43.75;21.69
48622;BME280;34421;48.944;9.460;2023-06-22T10:02:03;98257.53;;;45.73;19.33
48622;BME280;34421;48.944;9.460;2023-06-22T10:04:28;98256.81;;;47.26;17.76
48622;BME280;34421;48.944;9.460;2023-06-22T10:06:53;98263.31;;;47.04;18.30
48622;BME280;34421;48.944;9.460;2023-06-22T10:09:19;98261.44;;;45.75;19.15
48622;BME280;34421;48.944;9.460;2023-06-22T10:11:44;98253.06;;;44.11;20.47
48622;BME280;34421;48.944;9.460;2023-06-22T10:14:09;98257.09;;;43.44;21.32
48622;BME280;34421;48.944;9.460;2023-06-22T10:16:36;98244.75;;;44.07;19.53
48622;BME280;34421;48.944;9.460;2023-06-22T10:19:01;98244.41;;;44.64;19.30
48622;BME280;34421;48.944;9.460;2023-06-22T10:21:27;98239.59;;;45.19;18.90
48622;BME280;34421;48.944;9.460;2023-06-22T10:23:54;98229.72;;;45.87;19.07
48622;BME280;34421;48.944;9.460;2023-06-22T10:26:19;98232.72;;;45.20;18.82
48622;BME280;34421;48.944;9.460;2023-06-22T10:28:44;98235.50;;;43.94;20.09
48622;BME280;34421;48.944;9.460;2023-06-22T10:31:10;98226.06;;;42.43;21.48
48622;BME280;34421;48.944;9.460;2023-06-22T10:33:35;98227.03;;;41.65;22.30
48622;BME280;34421;48.944;9.460;2023-06-22T10:36:00;98234.19;;;41.16;23.29
48622;BME280;34421;48.944;9.460;2023-06-22T10:38:26;98226.72;;;40.75;24.17
48622;BME280;34421;48.944;9.460;2023-06-22T10:40:51;98217.78;;;39.81;25.40
48622;BME280;34421;48.944;9.460;2023-06-22T10:43:16;98197.75;;;39.93;24.99
48622;BME280;34421;48.944;9.460;2023-06-22T10:45:42;98194.28;;;39.82;25.51
48622;BME280;34421;48.944;9.460;2023-06-22T10:48:07;98193.19;;;39.65;25.86
48622;BME280;34421;48.944;9.460;2023-06-22T10:50:32;98190.81;;;40.08;25.38
48622;BME280;34421;48.944;9.460;2023-06-22T10:52:57;98187.56;;;41.13;23.66
48622;BME280;34421;48.944;9.460;2023-06-22T10:55:23;98194.09;;;40.99;24.26
48622;BME280;34421;48.944;9.460;2023-06-22T10:57:48;98187.69;;;40.41;24.57
48622;BME280;34421;48.944;9.460;2023-06-22T11:00:15;98180.00;;;40.18;24.80
48622;BME280;34421;48.944;9.460;2023-06-22T11:02:40;98182.78;;;40.48;24.47
48622;BME280;34421;48.944;9.460;2023-06-22T11:05:06;98176.66;;;40.30;25.30
48622;BME280;34421;48.944;9.460;2023-06-22T11:07:32;98183.09;;;40.58;25.02
48622;BME280;34421;48.944;9.460;2023-06-22T11:09:58;98179.66;;;40.46;24.16
48622;BME280;34421;48.944;9.460;2023-06-22T11:12:23;98174.16;;;39.60;25.66
48622;BME280;34421;48.944;9.460;2023-06-22T11:14:48;98168.03;;;39.24;26.41
48622;BME280;34421;48.944;9.460;2023-06-22T11:17:16;98172.22;;;39.01;26.76
48622;BME280;34421;48.944;9.460;2023-06-22T11:19:42;98156.56;;;39.22;26.45
48622;BME280;34421;48.944;9.460;2023-06-22T11:22:07;98152.16;;;39.20;26.40
48622;BME280;34421;48.944;9.460;2023-06-22T11:24:32;98158.81;;;38.74;27.21
48622;BME280;34421;48.944;9.460;2023-06-22T11:26:58;98163.06;;;37.09;29.47
48622;BME280;34421;48.944;9.460;2023-06-22T11:29:23;98164.28;;;36.06;31.26
48622;BME280;34421;48.944;9.460;2023-06-22T11:31:49;98162.81;;;35.20;32.82
48622;BME280;34421;48.944;9.460;2023-06-22T11:34:14;98161.66;;;34.53;34.53
48622;BME280;34421;48.944;9.460;2023-06-22T11:36:39;98159.09;;;34.37;34.35
48622;BME280;34421;48.944;9.460;2023-06-22T11:39:05;98163.97;;;34.47;34.25
48622;BME280;34421;48.944;9.460;2023-06-22T11:41:30;98160.56;;;34.28;34.96
48622;BME280;34421;48.944;9.460;2023-06-22T11:43:56;98147.88;;;33.96;35.67
48622;BME280;34421;48.944;9.460;2023-06-22T11:46:21;98157.72;;;33.67;36.11
48622;BME280;34421;48.944;9.460;2023-06-22T11:48:46;98156.81;;;33.86;36.24
48622;BME280;34421;48.944;9.460;2023-06-22T11:51:12;98154.50;;;34.48;35.08
48622;BME280;34421;48.944;9.460;2023-06-22T11:53:37;98151.66;;;35.12;33.88
48622;BME280;34421;48.944;9.460;2023-06-22T11:56:02;98153.69;;;35.64;33.28
48622;BME280;34421;48.944;9.460;2023-06-22T11:58:28;98148.56;;;35.18;33.99
48622;BME280;34421;48.944;9.460;2023-06-22T12:00:53;98152.72;;;35.45;33.50
48622;BME280;34421;48.944;9.460;2023-06-22T12:03:20;98140.88;;;35.48;33.52
48622;BME280;34421;48.944;9.460;2023-06-22T12:05:46;98146.09;;;35.05;34.11
48622;BME280;34421;48.944;9.460;2023-06-22T12:08:12;98138.69;;;34.79;34.48
48622;BME280;34421;48.944;9.460;2023-06-22T12:10:39;98137.06;;;34.44;35.62
48622;BME280;34421;48.944;9.460;2023-06-22T12:13:04;98144.34;;;33.69;36.44
48622;BME280;34421;48.944;9.460;2023-06-22T12:15:29;98153.94;;;33.06;37.36
48622;BME280;34421;48.944;9.460;2023-06-22T12:17:55;98162.31;;;32.71;38.31
48622;BME280;34421;48.944;9.460;2023-06-22T12:20:20;98156.53;;;32.57;39.14
48622;BME280;34421;48.944;9.460;2023-06-22T12:22:45;98150.28;;;32.60;38.58
48622;BME280;34421;48.944;9.460;2023-06-22T12:25:11;98156.16;;;32.78;38.73
48622;BME280;34421;48.944;9.460;2023-06-22T12:27:36;98152.59;;;33.20;37.73
48622;BME280;34421;48.944;9.460;2023-06-22T12:30:03;98154.25;;;33.47;37.40
48622;BME280;34421;48.944;9.460;2023-06-22T12:32:29;98160.44;;;33.41;37.30
48622;BME280;34421;48.944;9.460;2023-06-22T12:34:55;98154.00;;;33.33;37.16
48622;BME280;34421;48.944;9.460;2023-06-22T12:37:20;98153.59;;;33.08;38.52
48622;BME280;34421;48.944;9.460;2023-06-22T12:39:46;98161.03;;;32.65;39.12
48622;BME280;34421;48.944;9.460;2023-06-22T12:42:11;98154.25;;;32.23;39.59
48622;BME280;34421;48.944;9.460;2023-06-22T12:44:38;98158.91;;;31.84;40.90
48622;BME280;34421;48.944;9.460;2023-06-22T12:47:04;98161.06;;;31.43;41.32
48622;BME280;34421;48.944;9.460;2023-06-22T12:49:29;98155.44;;;31.08;42.56
48622;BME280;34421;48.944;9.460;2023-06-22T12:51:55;98156.44;;;30.72;43.20
48622;BME280;34421;48.944;9.460;2023-06-22T12:54:20;98152.50;;;30.29;43.93
48622;BME280;34421;48.944;9.460;2023-06-22T12:56:45;98163.06;;;30.02;44.97
48622;BME280;34421;48.944;9.460;2023-06-22T12:59:11;98169.38;;;29.90;45.17
48622;BME280;34421;48.944;9.460;2023-06-22T13:01:36;98179.78;;;29.72;45.86
48622;BME280;34421;48.944;9.460;2023-06-22T13:04:02;98188.69;;;29.57;46.24